sensor_id;sensor_type;location;lat;lon;timestamp;P1;durP1;ratioP1;P2;durP2;ratioP2
32808;SDS011;19159;48.178;16.386;2024-02-26T00:01:36;4.43;;;2.58;;
32808;SDS011;19159;48.178;16.386;2024-02-26T00:04:01;5.43;;;2.40;;
32808;SDS011;19159;48.178;16.386;2024-02-26T00:06:28;4.72;;;2.08;;
32808;SDS011;19159;48.178;16.386;2024-02-26T00:08:54;5.78;;;2.63;;
32808;SDS011;19159;48.178;16.386;2024-02-26T00:11:20;4.18;;;2.38;;
32808;SDS011;19159;48.178;16.386;2024-02-26T00:13:46;4.88;;;2.40;;
32808;SDS011;19159;48.178;16.386;2024-02-26T00:16:11;7.95;;;2.33;;
32808;SDS011;19159;48.178;16.386;2024-02-26T00:18:37;4.38;;;2.58;;
32808;SDS011;19159;48.178;16.386;2024-02-26T00:21:03;5.95;;;2.47;;
32808;SDS011;19159;48.178;16.386;2024-02-26T00:23:29;5.85;;;2.97;;
32808;SDS011;19159;48.178;16.386;2024-02-26T00:25:54;5.18;;;2.50;;
32808;SDS011;19159;48.178;16.386;2024-02-26T00:28:20;4.93;;;2.55;;
32808;SDS011;19159;48.178;16.386;2024-02-26T00:30:46;5.43;;;3.00;;
32808;SDS011;19159;48.178;16.386;2024-02-26T00:33:14;4.80;;;2.08;;
32808;SDS011;19159;48.178;16.386;2024-02-26T00:35:41;5.63;;;2.50;;
32808;SDS011;19159;48.178;16.386;2024-02-26T00:38:07;5.43;;;2.22;;
32808;SDS011;19159;48.178;16.386;2024-02-26T00:40:32;4.28;;;2.72;;
32808;SDS011;19159;48.178;16.386;2024-02-26T00:42:59;6.70;;;2.78;;
32808;SDS011;19159;48.178;16.386;2024-02-26T00:45:24;4.32;;;2.70;;
32808;SDS011;19159;48.178;16.386;2024-02-26T00:47:50;4.90;;;2.90;;
32808;SDS011;19159;48.178;16.386;2024-02-26T00:50:16;5.38;;;3.08;;
32808;SDS011;19159;48.178;16.386;2024-02-26T00:52:42;5.85;;;3.10;;
32808;SDS011;19159;48.178;16.386;2024-02-26T00:55:07;4.78;;;2.70;;
32808;SDS011;19159;48.178;16.386;2024-02-26T00:57:33;6.68;;;3.63;;
32808;SDS011;19159;48.178;16.386;2024-02-26T00:59:59;5.70;;;2.97;;
32808;SDS011;19159;48.178;16.386;2024-02-26T01:02:25;7.78;;;3.60;;
32808;SDS011;19159;48.178;16.386;2024-02-26T01:04:51;7.80;;;3.72;;
32808;SDS011;19159;48.178;16.386;2024-02-26T01:07:17;5.75;;;3.30;;
32808;SDS011;19159;48.178;16.386;2024-02-26T01:09:42;6.60;;;4.30;;
32808;SDS011;19159;48.178;16.386;2024-02-26T01:12:08;7.45;;;4.00;;
32808;SDS011;19159;48.178;16.386;2024-02-26T01:14:34;8.48;;;4.57;;
32808;SDS011;19159;48.178;16.386;2024-02-26T01:16:59;7.63;;;5.10;;
32808;SDS011;19159;48.178;16.386;2024-02-26T01:19:25;7.90;;;4.47;;
32808;SDS011;19159;48.178;16.386;2024-02-26T01:21:51;7.95;;;4.40;;
32808;SDS011;19159;48.178;16.386;2024-02-26T01:24:16;7.10;;;4.30;;
32808;SDS011;19159;48.178;16.386;2024-02-26T01:26:42;9.48;;;4.80;;
32808;SDS011;19159;48.178;16.386;2024-02-26T01:29:08;9.35;;;4.25;;
32808;SDS011;19159;48.178;16.386;2024-02-26T01:31:33;6.32;;;4.47;;
32808;SDS011;19159;48.178;16.386;2024-02-26T01:33:59;6.00;;;3.58;;
32808;SDS011;19159;48.178;16.386;2024-02-26T01:36:25;5.90;;;4.10;;
32808;SDS011;19159;48.178;16.386;2024-02-26T01:38:51;5.90;;;3.95;;
32808;SDS011;19159;48.178;16.386;2024-02-26T01:41:17;6.50;;;3.80;;
32808;SDS011;19159;48.178;16.386;2024-02-26T01:43:42;9.95;;;4.15;;
32808;SDS011;19159;48.178;16.386;2024-02-26T01:46:12;7.38;;;3.90;;
32808;SDS011;19159;48.178;16.386;2024-02-26T01:48:42;5.70;;;4.22;;
32808;SDS011;19159;48.178;16.386;2024-02-26T01:51:10;6.53;;;4.30;;
32808;SDS011;19159;48.178;16.386;2024-02-26T01:53:37;5.47;;;4.10;;
32808;SDS011;19159;48.178;16.386;2024-02-26T01:56:03;7.45;;;3.92;;
32808;SDS011;19159;48.178;16.386;2024-02-26T01:58:29;6.40;;;4.15;;
32808;SDS011;19159;48.178;16.386;2024-02-26T02:00:56;5.82;;;4.10;;
32808;SDS011;19159;48.178;16.386;2024-02-26T02:03:23;7.88;;;3.97;;
32808;SDS011;19159;48.178;16.386;2024-02-26T02:05:49;6.35;;;3.80;;
32808;SDS011;19159;48.178;16.386;2024-02-26T02:08:15;9.30;;;4.07;;
32808;SDS011;19159;48.178;16.386;2024-02-26T02:10:41;6.75;;;3.97;;
32808;SDS011;19159;48.178;16.386;2024-02-26T02:13:07;6.70;;;3.70;;
32808;SDS011;19159;48.178;16.386;2024-02-26T02:15:34;5.88;;;3.53;;
32808;SDS011;19159;48.178;16.386;2024-02-26T02:17:59;5.57;;;3.58;;
32808;SDS011;19159;48.178;16.386;2024-02-26T02:20:26;5.28;;;3.55;;
32808;SDS011;19159;48.178;16.386;2024-02-26T02:22:58;5.63;;;3.65;;
32808;SDS011;19159;48.178;16.386;2024-02-26T02:25:23;5.38;;;3.55;;
32808;SDS011;19159;48.178;16.386;2024-02-26T02:27:49;7.00;;;3.80;;
32808;SDS011;19159;48.178;16.386;2024-02-26T02:30:16;6.15;;;3.58;;
32808;SDS011;19159;48.178;16.386;2024-02-26T02:32:42;6.32;;;3.97;;
32808;SDS011;19159;48.178;16.386;2024-02-26T02:35:09;7.13;;;3.80;;
32808;SDS011;19159;48.178;16.386;2024-02-26T02:37:35;5.65;;;3.58;;
32808;SDS011;19159;48.178;16.386;2024-02-26T02:40:02;6.03;;;3.22;;
32808;SDS011;19159;48.178;16.386;2024-02-26T02:42:28;6.45;;;3.60;;
32808;SDS011;19159;48.178;16.386;2024-02-26T02:44:53;4.88;;;3.35;;
32808;SDS011;19159;48.178;16.386;2024-02-26T02:47:19;7.38;;;3.22;;
32808;SDS011;19159;48.178;16.386;2024-02-26T02:49:45;5.35;;;3.53;;
32808;SDS011;19159;48.178;16.386;2024-02-26T02:52:10;6.65;;;3.20;;
32808;SDS011;19159;48.178;16.386;2024-02-26T02:54:36;4.90;;;2.97;;
32808;SDS011;19159;48.178;16.386;2024-02-26T02:57:05;5.30;;;2.63;;
32808;SDS011;19159;48.178;16.386;2024-02-26T02:59:31;5.78;;;2.90;;
32808;SDS011;19159;48.178;16.386;2024-02-26T03:01:56;7.13;;;2.83;;
32808;SDS011;19159;48.178;16.386;2024-02-26T03:04:22;4.00;;;2.53;;
32808;SDS011;19159;48.178;16.386;2024-02-26T03:06:48;5.95;;;2.47;;
32808;SDS011;19159;48.178;16.386;2024-02-26T03:09:13;4.68;;;3.13;;
32808;SDS011;19159;48.178;16.386;2024-02-26T03:11:39;5.38;;;2.80;;
32808;SDS011;19159;48.178;16.386;2024-02-26T03:14:05;4.68;;;2.72;;
32808;SDS011;19159;48.178;16.386;2024-02-26T03:16:31;5.40;;;2.60;;
32808;SDS011;19159;48.178;16.386;2024-02-26T03:18:57;5.75;;;2.78;;
32808;SDS011;19159;48.178;16.386;2024-02-26T03:21:24;4.90;;;2.88;;
32808;SDS011;19159;48.178;16.386;2024-02-26T03:23:50;4.47;;;2.80;;
32808;SDS011;19159;48.178;16.386;2024-02-26T03:26:16;6.00;;;2.92;;
32808;SDS011;19159;48.178;16.386;2024-02-26T03:28:42;5.30;;;2.92;;
32808;SDS011;19159;48.178;16.386;2024-02-26T03:31:07;8.18;;;3.00;;
32808;SDS011;19159;48.178;16.386;2024-02-26T03:33:33;5.68;;;2.90;;
32808;SDS011;19159;48.178;16.386;2024-02-26T03:35:59;5.78;;;3.30;;
32808;SDS011;19159;48.178;16.386;2024-02-26T03:38:25;4.38;;;3.00;;
32808;SDS011;19159;48.178;16.386;2024-02-26T03:40:51;7.00;;;3.20;;
32808;SDS011;19159;48.178;16.386;2024-02-26T03:43:16;5.40;;;3.00;;
32808;SDS011;19159;48.178;16.386;2024-02-26T03:45:42;4.53;;;2.90;;
32808;SDS011;19159;48.178;16.386;2024-02-26T03:48:08;5.65;;;3.22;;
32808;SDS011;19159;48.178;16.386;2024-02-26T03:50:34;4.95;;;2.90;;
32808;SDS011;19159;48.178;16.386;2024-02-26T03:52:59;6.68;;;2.72;;
32808;SDS011;19159;48.178;16.386;2024-02-26T03:55:25;4.32;;;3.15;;
32808;SDS011;19159;48.178;16.386;2024-02-26T03:57:51;6.00;;;2.95;;
32808;SDS011;19159;48.178;16.386;2024-02-26T04:00:17;4.47;;;2.60;;
32808;SDS011;19159;48.178;16.386;2024-02-26T04:02:43;5.97;;;3.17;;
32808;SDS011;19159;48.178;16.386;2024-02-26T04:05:09;5.22;;;2.78;;
32808;SDS011;19159;48.178;16.386;2024-02-26T04:07:36;5.25;;;2.80;;
32808;SDS011;19159;48.178;16.386;2024-02-26T04:10:01;4.70;;;2.85;;
32808;SDS011;19159;48.178;16.386;2024-02-26T04:12:30;5.60;;;3.05;;
32808;SDS011;19159;48.178;16.386;2024-02-26T04:14:56;6.22;;;3.30;;
32808;SDS011;19159;48.178;16.386;2024-02-26T04:17:21;6.70;;;2.95;;
32808;SDS011;19159;48.178;16.386;2024-02-26T04:19:47;8.57;;;3.83;;
32808;SDS011;19159;48.178;16.386;2024-02-26T04:22:13;6.55;;;3.28;;
32808;SDS011;19159;48.178;16.386;2024-02-26T04:24:38;7.03;;;3.15;;
32808;SDS011;19159;48.178;16.386;2024-02-26T04:27:04;8.68;;;3.92;;
32808;SDS011;19159;48.178;16.386;2024-02-26T04:29:30;4.90;;;2.83;;
32808;SDS011;19159;48.178;16.386;2024-02-26T04:31:55;5.70;;;3.45;;
32808;SDS011;19159;48.178;16.386;2024-02-26T04:34:21;5.13;;;3.33;;
32808;SDS011;19159;48.178;16.386;2024-02-26T04:36:47;5.97;;;3.50;;
32808;SDS011;19159;48.178;16.386;2024-02-26T04:39:13;6.82;;;3.13;;
32808;SDS011;19159;48.178;16.386;2024-02-26T04:41:38;4.97;;;3.00;;
32808;SDS011;19159;48.178;16.386;2024-02-26T04:44:04;6.43;;;3.65;;
32808;SDS011;19159;48.178;16.386;2024-02-26T04:46:30;6.75;;;3.60;;
32808;SDS011;19159;48.178;16.386;2024-02-26T04:48:56;5.93;;;3.20;;
32808;SDS011;19159;48.178;16.386;2024-02-26T04:51:22;6.10;;;2.97;;
32808;SDS011;19159;48.178;16.386;2024-02-26T04:53:47;9.30;;;3.67;;
32808;SDS011;19159;48.178;16.386;2024-02-26T04:56:14;5.28;;;3.22;;
32808;SDS011;19159;48.178;16.386;2024-02-26T04:58:39;7.88;;;3.65;;
32808;SDS011;19159;48.178;16.386;2024-02-26T05:01:05;6.40;;;3.78;;
32808;SDS011;19159;48.178;16.386;2024-02-26T05:03:31;4.78;;;3.67;;
32808;SDS011;19159;48.178;16.386;2024-02-26T05:05:56;5.57;;;3.78;;
32808;SDS011;19159;48.178;16.386;2024-02-26T05:08:23;6.03;;;4.07;;
32808;SDS011;19159;48.178;16.386;2024-02-26T05:10:49;5.72;;;3.97;;
32808;SDS011;19159;48.178;16.386;2024-02-26T05:13:14;9.00;;;4.75;;
32808;SDS011;19159;48.178;16.386;2024-02-26T05:15:42;6.82;;;4.80;;
32808;SDS011;19159;48.178;16.386;2024-02-26T05:18:08;5.65;;;4.28;;
32808;SDS011;19159;48.178;16.386;2024-02-26T05:20:34;10.18;;;5.60;;
32808;SDS011;19159;48.178;16.386;2024-02-26T05:23:01;7.80;;;5.15;;
32808;SDS011;19159;48.178;16.386;2024-02-26T05:25:26;8.73;;;6.18;;
32808;SDS011;19159;48.178;16.386;2024-02-26T05:27:52;8.48;;;4.20;;
32808;SDS011;19159;48.178;16.386;2024-02-26T05:30:18;7.57;;;4.53;;
32808;SDS011;19159;48.178;16.386;2024-02-26T05:32:44;7.85;;;4.45;;
32808;SDS011;19159;48.178;16.386;2024-02-26T05:35:09;7.78;;;4.68;;
32808;SDS011;19159;48.178;16.386;2024-02-26T05:37:35;6.88;;;4.90;;
32808;SDS011;19159;48.178;16.386;2024-02-26T05:40:00;5.63;;;4.50;;
32808;SDS011;19159;48.178;16.386;2024-02-26T05:42:29;6.35;;;4.25;;
32808;SDS011;19159;48.178;16.386;2024-02-26T05:44:54;5.50;;;4.07;;
32808;SDS011;19159;48.178;16.386;2024-02-26T05:47:20;9.23;;;4.43;;
32808;SDS011;19159;48.178;16.386;2024-02-26T05:49:46;6.57;;;4.53;;
32808;SDS011;19159;48.178;16.386;2024-02-26T05:52:11;7.95;;;4.50;;
32808;SDS011;19159;48.178;16.386;2024-02-26T05:54:37;7.10;;;4.25;;
32808;SDS011;19159;48.178;16.386;2024-02-26T05:57:03;8.82;;;4.50;;
32808;SDS011;19159;48.178;16.386;2024-02-26T05:59:30;6.63;;;4.00;;
32808;SDS011;19159;48.178;16.386;2024-02-26T06:01:55;5.85;;;4.13;;
32808;SDS011;19159;48.178;16.386;2024-02-26T06:04:21;6.35;;;4.60;;
32808;SDS011;19159;48.178;16.386;2024-02-26T06:06:47;10.32;;;4.20;;
32808;SDS011;19159;48.178;16.386;2024-02-26T06:09:12;6.72;;;4.40;;
32808;SDS011;19159;48.178;16.386;2024-02-26T06:11:38;6.47;;;4.32;;
32808;SDS011;19159;48.178;16.386;2024-02-26T06:14:04;6.13;;;3.88;;
32808;SDS011;19159;48.178;16.386;2024-02-26T06:16:30;6.20;;;4.15;;
32808;SDS011;19159;48.178;16.386;2024-02-26T06:18:56;6.93;;;3.80;;
32808;SDS011;19159;48.178;16.386;2024-02-26T06:21:21;7.18;;;4.13;;
32808;SDS011;19159;48.178;16.386;2024-02-26T06:23:47;5.22;;;3.95;;
32808;SDS011;19159;48.178;16.386;2024-02-26T06:26:14;14.77;;;4.30;;
32808;SDS011;19159;48.178;16.386;2024-02-26T06:28:39;5.82;;;3.42;;
32808;SDS011;19159;48.178;16.386;2024-02-26T06:31:05;7.65;;;3.55;;
32808;SDS011;19159;48.178;16.386;2024-02-26T06:33:31;6.50;;;3.70;;
32808;SDS011;19159;48.178;16.386;2024-02-26T06:35:57;8.63;;;4.18;;
32808;SDS011;19159;48.178;16.386;2024-02-26T06:38:23;8.38;;;3.83;;
32808;SDS011;19159;48.178;16.386;2024-02-26T06:40:49;6.25;;;4.10;;
32808;SDS011;19159;48.178;16.386;2024-02-26T06:43:14;8.77;;;4.35;;
32808;SDS011;19159;48.178;16.386;2024-02-26T06:45:40;8.35;;;4.30;;
32808;SDS011;19159;48.178;16.386;2024-02-26T06:48:06;7.63;;;3.97;;
32808;SDS011;19159;48.178;16.386;2024-02-26T06:50:32;6.70;;;4.18;;
32808;SDS011;19159;48.178;16.386;2024-02-26T06:52:58;8.13;;;4.55;;
32808;SDS011;19159;48.178;16.386;2024-02-26T06:55:23;6.32;;;4.28;;
32808;SDS011;19159;48.178;16.386;2024-02-26T06:57:49;6.88;;;4.15;;
32808;SDS011;19159;48.178;16.386;2024-02-26T07:00:15;7.55;;;4.28;;
32808;SDS011;19159;48.178;16.386;2024-02-26T07:02:41;6.10;;;4.30;;
32808;SDS011;19159;48.178;16.386;2024-02-26T07:05:07;6.22;;;4.43;;
32808;SDS011;19159;48.178;16.386;2024-02-26T07:07:34;7.47;;;4.63;;
32808;SDS011;19159;48.178;16.386;2024-02-26T07:10:00;7.00;;;4.47;;
32808;SDS011;19159;48.178;16.386;2024-02-26T07:12:28;6.45;;;4.32;;
32808;SDS011;19159;48.178;16.386;2024-02-26T07:14:54;5.88;;;4.32;;
32808;SDS011;19159;48.178;16.386;2024-02-26T07:17:20;5.50;;;4.10;;
32808;SDS011;19159;48.178;16.386;2024-02-26T07:19:46;8.30;;;4.75;;
32808;SDS011;19159;48.178;16.386;2024-02-26T07:22:11;11.18;;;4.72;;
32808;SDS011;19159;48.178;16.386;2024-02-26T07:24:37;6.47;;;4.70;;
32808;SDS011;19159;48.178;16.386;2024-02-26T07:27:03;7.43;;;4.38;;
32808;SDS011;19159;48.178;16.386;2024-02-26T07:29:29;9.73;;;4.90;;
32808;SDS011;19159;48.178;16.386;2024-02-26T07:31:54;8.45;;;4.05;;
32808;SDS011;19159;48.178;16.386;2024-02-26T07:34:20;7.82;;;4.40;;
32808;SDS011;19159;48.178;16.386;2024-02-26T07:36:52;6.55;;;4.18;;
32808;SDS011;19159;48.178;16.386;2024-02-26T07:39:18;9.30;;;4.13;;
32808;SDS011;19159;48.178;16.386;2024-02-26T07:41:44;7.38;;;4.05;;
32808;SDS011;19159;48.178;16.386;2024-02-26T07:44:13;6.10;;;4.25;;
32808;SDS011;19159;48.178;16.386;2024-02-26T07:46:39;5.40;;;4.00;;
32808;SDS011;19159;48.178;16.386;2024-02-26T07:49:04;7.07;;;3.80;;
32808;SDS011;19159;48.178;16.386;2024-02-26T07:51:30;10.23;;;4.32;;
32808;SDS011;19159;48.178;16.386;2024-02-26T07:53:55;11.65;;;4.45;;
32808;SDS011;19159;48.178;16.386;2024-02-26T07:56:22;10.00;;;4.22;;
32808;SDS011;19159;48.178;16.386;2024-02-26T07:58:47;12.82;;;5.05;;
32808;SDS011;19159;48.178;16.386;2024-02-26T08:01:13;8.23;;;4.95;;
32808;SDS011;19159;48.178;16.386;2024-02-26T08:03:39;9.75;;;4.57;;
32808;SDS011;19159;48.178;16.386;2024-02-26T08:06:05;8.32;;;4.85;;
32808;SDS011;19159;48.178;16.386;2024-02-26T08:08:32;5.07;;;4.28;;
32808;SDS011;19159;48.178;16.386;2024-02-26T08:10:58;6.78;;;4.70;;
32808;SDS011;19159;48.178;16.386;2024-02-26T08:13:24;8.30;;;4.57;;
32808;SDS011;19159;48.178;16.386;2024-02-26T08:15:49;5.63;;;4.50;;
32808;SDS011;19159;48.178;16.386;2024-02-26T08:18:15;5.93;;;4.75;;
32808;SDS011;19159;48.178;16.386;2024-02-26T08:20:41;6.93;;;4.18;;
32808;SDS011;19159;48.178;16.386;2024-02-26T08:23:06;11.73;;;5.00;;
32808;SDS011;19159;48.178;16.386;2024-02-26T08:25:32;5.72;;;4.20;;
32808;SDS011;19159;48.178;16.386;2024-02-26T08:27:58;4.35;;;3.95;;
32808;SDS011;19159;48.178;16.386;2024-02-26T08:30:24;6.68;;;4.22;;
32808;SDS011;19159;48.178;16.386;2024-02-26T08:32:49;4.85;;;3.80;;
32808;SDS011;19159;48.178;16.386;2024-02-26T08:35:15;6.45;;;4.15;;
32808;SDS011;19159;48.178;16.386;2024-02-26T08:37:43;7.18;;;4.20;;
32808;SDS011;19159;48.178;16.386;2024-02-26T08:40:10;6.35;;;3.70;;
32808;SDS011;19159;48.178;16.386;2024-02-26T08:42:36;6.18;;;3.67;;
32808;SDS011;19159;48.178;16.386;2024-02-26T08:45:02;5.57;;;3.70;;
32808;SDS011;19159;48.178;16.386;2024-02-26T08:47:28;9.05;;;3.72;;
32808;SDS011;19159;48.178;16.386;2024-02-26T08:49:54;4.60;;;3.35;;
32808;SDS011;19159;48.178;16.386;2024-02-26T08:52:20;5.72;;;3.22;;
32808;SDS011;19159;48.178;16.386;2024-02-26T08:54:46;4.13;;;3.00;;
32808;SDS011;19159;48.178;16.386;2024-02-26T08:57:15;4.50;;;3.05;;
32808;SDS011;19159;48.178;16.386;2024-02-26T08:59:40;4.82;;;3.42;;
32808;SDS011;19159;48.178;16.386;2024-02-26T09:02:07;3.72;;;2.88;;
32808;SDS011;19159;48.178;16.386;2024-02-26T09:04:34;5.88;;;3.30;;
32808;SDS011;19159;48.178;16.386;2024-02-26T09:07:00;4.47;;;2.80;;
32808;SDS011;19159;48.178;16.386;2024-02-26T09:09:27;4.32;;;2.92;;
32808;SDS011;19159;48.178;16.386;2024-02-26T09:11:52;5.20;;;2.60;;
32808;SDS011;19159;48.178;16.386;2024-02-26T09:14:20;6.10;;;2.90;;
32808;SDS011;19159;48.178;16.386;2024-02-26T09:16:46;3.17;;;2.47;;
32808;SDS011;19159;48.178;16.386;2024-02-26T09:19:13;3.47;;;2.30;;
32808;SDS011;19159;48.178;16.386;2024-02-26T09:21:43;4.32;;;2.95;;
32808;SDS011;19159;48.178;16.386;2024-02-26T09:24:09;6.85;;;2.30;;
32808;SDS011;19159;48.178;16.386;2024-02-26T09:26:36;3.60;;;2.03;;
32808;SDS011;19159;48.178;16.386;2024-02-26T09:29:02;4.78;;;2.28;;
32808;SDS011;19159;48.178;16.386;2024-02-26T09:31:29;6.55;;;2.35;;
32808;SDS011;19159;48.178;16.386;2024-02-26T09:33:55;3.95;;;2.15;;
32808;SDS011;19159;48.178;16.386;2024-02-26T09:36:20;3.45;;;1.83;;
32808;SDS011;19159;48.178;16.386;2024-02-26T09:38:46;5.40;;;2.03;;
32808;SDS011;19159;48.178;16.386;2024-02-26T09:41:16;9.15;;;1.65;;
32808;SDS011;19159;48.178;16.386;2024-02-26T09:43:42;3.80;;;1.65;;
32808;SDS011;19159;48.178;16.386;2024-02-26T09:46:11;2.63;;;1.33;;
32808;SDS011;19159;48.178;16.386;2024-02-26T09:48:37;2.40;;;1.50;;
32808;SDS011;19159;48.178;16.386;2024-02-26T09:51:03;2.13;;;1.45;;
32808;SDS011;19159;48.178;16.386;2024-02-26T09:53:30;2.70;;;1.73;;
32808;SDS011;19159;48.178;16.386;2024-02-26T09:56:00;2.58;;;1.40;;
32808;SDS011;19159;48.178;16.386;2024-02-26T09:58:27;3.92;;;1.60;;
32808;SDS011;19159;48.178;16.386;2024-02-26T10:00:58;4.20;;;1.52;;
32808;SDS011;19159;48.178;16.386;2024-02-26T10:03:31;2.75;;;1.40;;
32808;SDS011;19159;48.178;16.386;2024-02-26T10:06:01;7.60;;;1.58;;
32808;SDS011;19159;48.178;16.386;2024-02-26T10:08:29;4.55;;;1.52;;
32808;SDS011;19159;48.178;16.386;2024-02-26T10:10:55;4.28;;;1.60;;
32808;SDS011;19159;48.178;16.386;2024-02-26T10:13:21;5.95;;;1.90;;
32808;SDS011;19159;48.178;16.386;2024-02-26T10:15:48;2.58;;;1.60;;
32808;SDS011;19159;48.178;16.386;2024-02-26T10:18:13;2.97;;;1.40;;
32808;SDS011;19159;48.178;16.386;2024-02-26T10:20:39;2.35;;;1.33;;
32808;SDS011;19159;48.178;16.386;2024-02-26T10:23:05;4.85;;;1.45;;
32808;SDS011;19159;48.178;16.386;2024-02-26T10:25:31;4.88;;;1.42;;
32808;SDS011;19159;48.178;16.386;2024-02-26T10:27:59;2.83;;;1.50;;
32808;SDS011;19159;48.178;16.386;2024-02-26T10:30:27;3.67;;;1.88;;
32808;SDS011;19159;48.178;16.386;2024-02-26T10:32:53;3.00;;;1.58;;
32808;SDS011;19159;48.178;16.386;2024-02-26T10:35:19;2.17;;;1.50;;
32808;SDS011;19159;48.178;16.386;2024-02-26T10:37:46;3.75;;;1.73;;
32808;SDS011;19159;48.178;16.386;2024-02-26T10:40:13;6.18;;;1.65;;
32808;SDS011;19159;48.178;16.386;2024-02-26T10:42:39;3.80;;;1.88;;
32808;SDS011;19159;48.178;16.386;2024-02-26T10:45:06;3.20;;;1.63;;
32808;SDS011;19159;48.178;16.386;2024-02-26T10:47:37;1.88;;;1.35;;
32808;SDS011;19159;48.178;16.386;2024-02-26T10:50:05;2.63;;;1.35;;
32808;SDS011;19159;48.178;16.386;2024-02-26T10:52:32;2.97;;;1.42;;
32808;SDS011;19159;48.178;16.386;2024-02-26T10:55:00;4.40;;;1.52;;
32808;SDS011;19159;48.178;16.386;2024-02-26T10:57:34;3.95;;;1.80;;
32808;SDS011;19159;48.178;16.386;2024-02-26T11:00:05;2.45;;;2.08;;
32808;SDS011;19159;48.178;16.386;2024-02-26T11:02:34;3.65;;;1.80;;
32808;SDS011;19159;48.178;16.386;2024-02-26T11:05:04;2.72;;;1.60;;
32808;SDS011;19159;48.178;16.386;2024-02-26T11:07:31;2.28;;;1.40;;
32808;SDS011;19159;48.178;16.386;2024-02-26T11:09:59;3.28;;;1.60;;
32808;SDS011;19159;48.178;16.386;2024-02-26T11:12:25;4.90;;;1.63;;
32808;SDS011;19159;48.178;16.386;2024-02-26T11:14:54;3.78;;;1.60;;
32808;SDS011;19159;48.178;16.386;2024-02-26T11:17:22;5.75;;;1.50;;
32808;SDS011;19159;48.178;16.386;2024-02-26T11:19:50;3.45;;;1.02;;
32808;SDS011;19159;48.178;16.386;2024-02-26T11:22:18;2.50;;;1.52;;
32808;SDS011;19159;48.178;16.386;2024-02-26T11:24:47;1.52;;;1.17;;
32808;SDS011;19159;48.178;16.386;2024-02-26T11:27:13;1.77;;;1.25;;
32808;SDS011;19159;48.178;16.386;2024-02-26T11:29:47;3.45;;;1.23;;
32808;SDS011;19159;48.178;16.386;2024-02-26T11:32:14;3.55;;;1.58;;
32808;SDS011;19159;48.178;16.386;2024-02-26T11:34:40;3.35;;;1.30;;
32808;SDS011;19159;48.178;16.386;2024-02-26T11:39:40;8.35;;;2.28;;
32808;SDS011;19159;48.178;16.386;2024-02-26T11:42:06;6.07;;;1.20;;
32808;SDS011;19159;48.178;16.386;2024-02-26T11:44:33;3.83;;;1.58;;
32808;SDS011;19159;48.178;16.386;2024-02-26T11:46:59;4.93;;;1.65;;
32808;SDS011;19159;48.178;16.386;2024-02-26T11:49:38;3.70;;;1.20;;
32808;SDS011;19159;48.178;16.386;2024-02-26T11:52:05;5.65;;;1.45;;
32808;SDS011;19159;48.178;16.386;2024-02-26T11:57:37;6.07;;;0.90;;
32808;SDS011;19159;48.178;16.386;2024-02-26T12:05:25;1.75;;;1.25;;
32808;SDS011;19159;48.178;16.386;2024-02-26T12:07:59;2.22;;;1.00;;
32808;SDS011;19159;48.178;16.386;2024-02-26T12:10:32;5.63;;;1.25;;
32808;SDS011;19159;48.178;16.386;2024-02-26T12:13:13;1.67;;;0.95;;
32808;SDS011;19159;48.178;16.386;2024-02-26T12:15:44;1.30;;;0.80;;
32808;SDS011;19159;48.178;16.386;2024-02-26T12:18:31;3.65;;;1.27;;
32808;SDS011;19159;48.178;16.386;2024-02-26T12:21:03;1.75;;;1.08;;
32808;SDS011;19159;48.178;16.386;2024-02-26T12:23:29;3.33;;;1.30;;
32808;SDS011;19159;48.178;16.386;2024-02-26T12:26:01;3.05;;;2.50;;
32808;SDS011;19159;48.178;16.386;2024-02-26T12:28:31;5.72;;;5.25;;
32808;SDS011;19159;48.178;16.386;2024-02-26T12:30:56;1.63;;;1.52;;
32808;SDS011;19159;48.178;16.386;2024-02-26T12:33:26;2.95;;;1.30;;
32808;SDS011;19159;48.178;16.386;2024-02-26T12:35:53;2.72;;;0.80;;
32808;SDS011;19159;48.178;16.386;2024-02-26T12:38:19;2.50;;;0.93;;
32808;SDS011;19159;48.178;16.386;2024-02-26T12:40:45;2.63;;;0.93;;
32808;SDS011;19159;48.178;16.386;2024-02-26T12:43:10;3.05;;;1.05;;
32808;SDS011;19159;48.178;16.386;2024-02-26T12:45:41;2.55;;;1.00;;
32808;SDS011;19159;48.178;16.386;2024-02-26T12:48:07;2.08;;;0.95;;
32808;SDS011;19159;48.178;16.386;2024-02-26T12:50:34;2.47;;;1.00;;
32808;SDS011;19159;48.178;16.386;2024-02-26T12:52:59;3.42;;;1.00;;
32808;SDS011;19159;48.178;16.386;2024-02-26T12:55:25;7.05;;;1.50;;
32808;SDS011;19159;48.178;16.386;2024-02-26T12:57:52;3.65;;;0.80;;
32808;SDS011;19159;48.178;16.386;2024-02-26T13:00:20;2.22;;;0.90;;
32808;SDS011;19159;48.178;16.386;2024-02-26T13:02:51;4.78;;;1.10;;
32808;SDS011;19159;48.178;16.386;2024-02-26T13:05:19;5.95;;;1.42;;
32808;SDS011;19159;48.178;16.386;2024-02-26T13:07:45;2.75;;;1.30;;
32808;SDS011;19159;48.178;16.386;2024-02-26T13:10:15;2.05;;;0.70;;
32808;SDS011;19159;48.178;16.386;2024-02-26T13:12:46;3.80;;;1.02;;
32808;SDS011;19159;48.178;16.386;2024-02-26T13:15:15;4.53;;;0.90;;
32808;SDS011;19159;48.178;16.386;2024-02-26T13:17:42;3.20;;;0.85;;
32808;SDS011;19159;48.178;16.386;2024-02-26T13:20:12;3.05;;;0.95;;
32808;SDS011;19159;48.178;16.386;2024-02-26T13:22:40;2.38;;;1.10;;
32808;SDS011;19159;48.178;16.386;2024-02-26T13:25:06;1.73;;;0.82;;
32808;SDS011;19159;48.178;16.386;2024-02-26T13:27:32;4.07;;;1.23;;
32808;SDS011;19159;48.178;16.386;2024-02-26T13:30:03;3.03;;;0.82;;
32808;SDS011;19159;48.178;16.386;2024-02-26T13:32:31;3.47;;;0.93;;
32808;SDS011;19159;48.178;16.386;2024-02-26T13:35:11;2.08;;;0.80;;
32808;SDS011;19159;48.178;16.386;2024-02-26T13:37:38;3.92;;;1.08;;
32808;SDS011;19159;48.178;16.386;2024-02-26T13:40:10;1.98;;;0.70;;
32808;SDS011;19159;48.178;16.386;2024-02-26T13:42:37;5.82;;;0.93;;
32808;SDS011;19159;48.178;16.386;2024-02-26T13:45:03;3.47;;;0.95;;
32808;SDS011;19159;48.178;16.386;2024-02-26T13:47:35;3.00;;;0.98;;
32808;SDS011;19159;48.178;16.386;2024-02-26T13:50:01;2.88;;;0.80;;
32808;SDS011;19159;48.178;16.386;2024-02-26T13:52:27;2.63;;;0.75;;
32808;SDS011;19159;48.178;16.386;2024-02-26T13:54:53;2.05;;;0.80;;
32808;SDS011;19159;48.178;16.386;2024-02-26T13:57:19;2.30;;;1.00;;
32808;SDS011;19159;48.178;16.386;2024-02-26T13:59:45;3.80;;;1.45;;
32808;SDS011;19159;48.178;16.386;2024-02-26T14:02:11;1.70;;;0.90;;
32808;SDS011;19159;48.178;16.386;2024-02-26T14:04:37;2.47;;;0.90;;
32808;SDS011;19159;48.178;16.386;2024-02-26T14:07:03;2.90;;;0.93;;
32808;SDS011;19159;48.178;16.386;2024-02-26T14:09:29;2.03;;;1.00;;
32808;SDS011;19159;48.178;16.386;2024-02-26T14:11:57;3.33;;;1.02;;
32808;SDS011;19159;48.178;16.386;2024-02-26T14:14:23;1.88;;;0.90;;
32808;SDS011;19159;48.178;16.386;2024-02-26T14:16:51;2.10;;;1.00;;
32808;SDS011;19159;48.178;16.386;2024-02-26T14:19:16;1.67;;;0.70;;
32808;SDS011;19159;48.178;16.386;2024-02-26T14:21:42;2.00;;;0.80;;
32808;SDS011;19159;48.178;16.386;2024-02-26T14:24:08;1.67;;;0.93;;
32808;SDS011;19159;48.178;16.386;2024-02-26T14:26:33;2.55;;;0.90;;
32808;SDS011;19159;48.178;16.386;2024-02-26T14:28:59;1.42;;;0.63;;
32808;SDS011;19159;48.178;16.386;2024-02-26T14:31:25;0.90;;;0.77;;
32808;SDS011;19159;48.178;16.386;2024-02-26T14:33:51;2.22;;;0.85;;
32808;SDS011;19159;48.178;16.386;2024-02-26T14:36:19;5.55;;;0.93;;
32808;SDS011;19159;48.178;16.386;2024-02-26T14:38:47;1.67;;;0.82;;
32808;SDS011;19159;48.178;16.386;2024-02-26T14:41:13;2.28;;;0.80;;